Time;durP1;ratioP1;P1;durP2;ratioP2;P2;SDS_P1;SDS_P2;PMS_P1;PMS_P2;Temp;Humidity;BMP_temperature;BMP_pressure;BME280_temperature;BME280_humidity;BME280_pressure;Samples;Min_cycle;Max_cycle;Signal;HPM_P1;HPM_P2
2022/05/16 00:00:18;;;;;;;38.65;12.50;;;;;;;-149.78;100.00;50221.13;5135712;27;20363;-71
2022/05/16 00:02:45;;;;;;;39.08;12.07;;;;;;;-149.78;100.00;50209.38;5117593;27;20031;-71
2022/05/16 00:05:11;;;;;;;47.55;14.23;;;;;;;-149.78;100.00;50205.47;5135526;27;20542;-71
2022/05/16 00:07:37;;;;;;;51.30;16.75;;;;;;;-149.78;100.00;50185.91;5135227;27;20073;-71
2022/05/16 00:10:04;;;;;;;51.97;17.98;;;;;;;-149.78;100.00;50209.38;5117243;27;20023;-71
2022/05/16 00:12:31;;;;;;;55.67;21.00;;;;;;;-149.78;100.00;50185.91;5135515;27;20130;-71
2022/05/16 00:14:58;;;;;;;64.22;22.02;;;;;;;-149.78;100.00;50240.66;5117688;27;20035;-71
2022/05/16 00:17:24;;;;;;;57.42;21.45;;;;;;;-149.78;100.00;50244.59;5135653;27;20081;-71
2022/05/16 00:19:50;;;;;;;66.38;23.77;;;;;;;-149.78;100.00;50226.97;5116999;27;20553;-71
2022/05/16 00:22:16;;;;;;;75.38;29.83;;;;;;;-149.78;100.00;50252.41;5135310;27;20471;-71
2022/05/16 00:24:43;;;;;;;81.13;34.70;;;;;;;-149.78;100.00;50205.47;5135377;27;20478;-71
2022/05/16 00:27:09;;;;;;;65.28;30.60;;;;;;;-149.78;100.00;50217.19;5135224;27;20059;-71
2022/05/16 00:29:36;;;;;;;70.15;32.45;;;;;;;-149.78;100.00;50209.38;5117116;27;20058;-71
2022/05/16 00:32:02;;;;;;;60.38;25.58;;;;;;;-149.78;100.00;50232.84;5135325;27;20111;-70
2022/05/16 00:34:28;;;;;;;66.28;25.88;;;;;;;-149.78;100.00;50217.19;5116930;27;20035;-71
2022/05/16 00:36:53;;;;;;;70.80;24.35;;;;;;;-149.78;100.00;50209.38;5135132;27;20042;-71
2022/05/16 00:39:21;;;;;;;54.35;21.33;;;;;;;-149.78;100.00;50197.66;5116926;27;20544;-71
2022/05/16 00:41:48;;;;;;;52.10;19.70;;;;;;;-149.78;100.00;50213.28;5116716;27;20137;-71
2022/05/16 00:44:15;;;;;;;45.03;15.68;;;;;;;-149.78;100.00;50223.06;5116819;27;20362;-71
2022/05/16 00:46:41;;;;;;;48.60;17.50;;;;;;;-149.78;100.00;50205.47;5135103;27;20043;-71
2022/05/16 00:49:12;;;;;;;48.80;16.23;;;;;;;-149.78;100.00;50244.59;5134765;27;20113;-71
2022/05/16 00:51:44;;;;;;;49.42;13.90;;;;;;;-149.78;100.00;50256.31;5116359;27;20050;-71
2022/05/16 00:54:15;;;;;;;44.22;13.25;;;;;;;-149.78;100.00;50240.66;5134748;27;20520;-71
2022/05/16 00:56:42;;;;;;;44.20;12.68;;;;;;;-149.78;100.00;50209.38;5134885;27;20537;-71
2022/05/16 00:59:08;;;;;;;35.28;12.45;;;;;;;-149.78;100.00;50242.63;5116575;27;20466;-71
2022/05/16 01:07:03;;;;;;;41.08;11.40;;;;;;;-149.78;100.00;50240.66;5134514;27;20087;-71
2022/05/16 01:09:30;;;;;;;45.03;13.18;;;;;;;-149.78;100.00;50236.75;5110852;27;20046;-71
2022/05/16 01:11:57;;;;;;;40.70;11.27;;;;;;;-149.78;100.00;50232.84;5099304;27;20466;-72
2022/05/16 01:14:44;;;;;;;34.72;11.20;;;;;;;-149.78;100.00;50250.44;5134623;27;20073;-72
2022/05/16 01:17:10;;;;;;;34.50;11.05;;;;;;;-149.78;100.00;50244.59;5134331;27;20416;-72
2022/05/16 01:19:36;;;;;;;41.45;11.52;;;;;;;-149.78;100.00;50236.75;5133599;27;20023;-72
2022/05/16 01:22:24;;;;;;;34.38;10.77;;;;;;;-149.78;100.00;50264.13;5099088;27;20045;-72
2022/05/16 01:24:53;;;;;;;38.08;10.93;;;;;;;-149.78;100.00;50240.66;5134212;27;20031;-72
2022/05/16 01:27:19;;;;;;;38.78;11.88;;;;;;;-149.78;100.00;50256.31;5116130;27;20031;-72
2022/05/16 01:29:45;;;;;;;44.20;12.30;;;;;;;-149.78;100.00;50242.63;5134101;27;20038;-73
2022/05/16 01:32:10;;;;;;;32.78;11.20;;;;;;;-149.78;100.00;50238.72;5115859;27;20035;-72
2022/05/16 01:34:37;;;;;;;37.20;10.57;;;;;;;-149.78;100.00;50236.75;5115863;27;20123;-72
2022/05/16 01:37:04;;;;;;;34.80;10.55;;;;;;;-149.78;100.00;50230.88;5105894;28;20038;-72
2022/05/16 01:39:29;;;;;;;40.42;11.52;;;;;;;-149.78;100.00;50256.31;5095604;28;20556;-72
2022/05/16 01:41:55;;;;;;;37.75;10.90;;;;;;;-149.78;100.00;50260.22;5113571;28;20110;-72
2022/05/16 01:44:21;;;;;;;32.67;12.52;;;;;;;-149.78;100.00;50258.28;5095291;28;20036;-72
2022/05/16 01:46:47;;;;;;;31.38;11.18;;;;;;;-149.78;100.00;50215.25;5095264;28;20035;-72
2022/05/16 01:49:12;;;;;;;31.88;11.48;;;;;;;-149.78;100.00;50236.75;5095147;28;20035;-72
2022/05/16 01:51:39;;;;;;;38.67;11.05;;;;;;;-149.78;100.00;50275.88;5095075;28;20047;-72
2022/05/16 01:54:05;;;;;;;37.30;11.52;;;;;;;-149.78;100.00;50258.28;5095427;28;20031;-72
2022/05/16 01:56:32;;;;;;;28.55;10.70;;;;;;;-149.78;100.00;50273.91;5113326;28;20039;-72
2022/05/16 01:59:00;;;;;;;29.85;11.30;;;;;;;-149.78;100.00;50246.53;5095141;28;20045;-72
2022/05/16 02:01:26;;;;;;;29.27;11.20;;;;;;;-149.78;100.00;50244.59;5095001;28;20084;-72
2022/05/16 02:03:52;;;;;;;34.50;12.00;;;;;;;-149.78;100.00;50248.50;5102611;27;20083;-72
2022/05/16 02:06:18;;;;;;;30.35;11.70;;;;;;;-149.78;100.00;50232.84;5133752;27;20039;-72
2022/05/16 02:08:44;;;;;;;32.35;12.05;;;;;;;-149.78;100.00;50287.59;5097985;27;20039;-72
2022/05/16 02:11:10;;;;;;;37.63;11.15;;;;;;;-149.78;100.00;50252.41;5115285;27;20038;-72
2022/05/16 02:13:38;;;;;;;34.33;11.15;;;;;;;-149.78;100.00;50248.50;5115338;27;20035;-72
2022/05/16 02:16:04;;;;;;;32.35;11.10;;;;;;;-149.78;100.00;50260.22;5115190;27;20424;-72
2022/05/16 02:18:30;;;;;;;30.10;11.75;;;;;;;-149.78;100.00;50240.66;5112642;27;20060;-72
2022/05/16 02:24:38;;;;;;;26.50;10.60;;;;;;;-149.78;100.00;50209.38;5131325;27;20031;-72
2022/05/16 02:26:27;;;;;;;31.63;12.25;;;;;;;-149.78;100.00;50228.94;5084870;27;20428;-72
2022/05/16 02:28:53;;;;;;;35.53;11.55;;;;;;;-149.78;100.00;50293.47;5132950;27;20039;-72
2022/05/16 02:31:22;;;;;;;27.40;11.93;;;;;;;-149.78;100.00;50252.41;5132874;27;20508;-72
2022/05/16 02:33:48;;;;;;;31.73;12.07;;;;;;;-149.78;100.00;50260.22;5114940;27;20039;-72
2022/05/16 02:36:15;;;;;;;25.63;11.60;;;;;;;-149.78;100.00;50219.16;5132982;27;20039;-72
2022/05/16 02:38:42;;;;;;;35.03;11.48;;;;;;;-149.78;100.00;50268.03;5132987;27;20102;-72
2022/05/16 02:41:07;;;;;;;25.33;11.65;;;;;;;-149.78;100.00;50221.13;5114690;28;20049;-72
2022/05/16 02:43:33;;;;;;;26.42;10.60;;;;;;;-149.78;100.00;50213.28;5132835;27;20486;-71
2022/05/16 02:45:59;;;;;;;19.48;9.15;;;;;;;-149.78;100.00;50264.13;5080876;28;20039;-72
2022/05/16 02:48:25;;;;;;;21.80;9.38;;;;;;;-149.78;100.00;50264.13;5097948;28;20027;-72
2022/05/16 02:50:50;;;;;;;19.08;9.00;;;;;;;-149.78;100.00;50244.59;5132689;28;20478;-71
2022/05/16 02:53:16;;;;;;;17.00;7.40;;;;;;;-149.78;100.00;50236.75;5133110;28;20103;-72
2022/05/16 02:55:44;;;;;;;15.75;8.10;;;;;;;-149.78;100.00;50252.41;5114531;28;20032;-71
2022/05/16 02:58:10;;;;;;;14.77;7.68;;;;;;;-149.78;100.00;50260.22;5114989;28;20477;-72
2022/05/16 03:00:37;;;;;;;12.18;6.53;;;;;;;-149.78;100.00;50256.31;5114378;28;20035;-71
2022/05/16 03:03:05;;;;;;;13.43;6.90;;;;;;;-149.78;100.00;50254.34;5132374;28;20427;-71
2022/05/16 03:05:32;;;;;;;12.00;5.45;;;;;;;-149.78;100.00;50248.50;5114334;28;20203;-72
2022/05/16 03:07:58;;;;;;;11.20;6.00;;;;;;;-149.78;100.00;50234.81;5114065;28;20047;-72
2022/05/16 03:10:30;;;;;;;10.55;6.25;;;;;;;-149.78;100.00;50256.31;5114809;28;20651;-71
2022/05/16 03:12:59;;;;;;;11.73;6.40;;;;;;;-149.78;100.00;50256.31;5132847;28;20035;-71
2022/05/16 03:15:24;;;;;;;10.50;6.60;;;;;;;-149.78;100.00;50248.50;5113971;28;20032;-71
2022/05/16 03:17:50;;;;;;;10.57;6.25;;;;;;;-149.78;100.00;50228.94;5132533;28;20032;-71
2022/05/16 03:20:16;;;;;;;17.13;6.75;;;;;;;-149.78;100.00;50271.97;5114347;28;20378;-71
2022/05/16 03:22:41;;;;;;;12.95;6.18;;;;;;;-149.78;100.00;50228.94;5114109;28;20035;-72
2022/05/16 03:25:09;;;;;;;17.23;6.07;;;;;;;-149.78;100.00;50248.50;5132820;28;20031;-72
2022/05/16 03:27:34;;;;;;;11.82;6.85;;;;;;;-149.78;100.00;50209.38;5114524;28;20031;-72
2022/05/16 03:30:00;;;;;;;14.77;7.00;;;;;;;-149.78;100.00;50260.22;5114523;28;20032;-72
2022/05/16 03:32:27;;;;;;;12.18;7.00;;;;;;;-149.78;100.00;50240.66;5114567;28;20035;-71
2022/05/16 03:34:54;;;;;;;13.30;7.10;;;;;;;-149.78;100.00;50228.94;5109684;28;20072;-71
2022/05/16 03:37:20;;;;;;;14.23;7.63;;;;;;;-149.78;100.00;50283.69;5132655;28;20027;-72
2022/05/16 03:42:31;;;;;;;19.10;8.10;;;;;;;-149.78;100.00;50244.59;5101255;27;20035;-71
2022/05/16 03:44:57;;;;;;;16.15;7.78;;;;;;;-149.78;100.00;50225.03;5101097;27;20523;-71
2022/05/16 03:47:23;;;;;;;32.95;8.27;;;;;;;-149.78;100.00;50240.66;5136526;27;20031;-71
2022/05/16 03:49:49;;;;;;;17.00;7.93;;;;;;;-149.78;100.00;50240.66;5117872;27;20462;-72
2022/05/16 03:52:15;;;;;;;19.45;8.45;;;;;;;-149.78;100.00;50252.41;5116404;27;20042;-71
2022/05/16 03:54:42;;;;;;;17.45;8.65;;;;;;;-149.78;100.00;50244.59;5101765;27;20031;-72
2022/05/16 03:57:08;;;;;;;16.63;8.52;;;;;;;-149.78;100.00;50223.06;5117568;27;20084;-72
2022/05/16 03:59:34;;;;;;;19.23;9.65;;;;;;;-149.78;100.00;50254.34;5117621;27;20362;-72
2022/05/16 04:01:59;;;;;;;21.35;10.30;;;;;;;-149.78;100.00;50209.38;5100663;27;20412;-72
2022/05/16 04:04:26;;;;;;;22.15;10.00;;;;;;;-149.78;100.00;50268.03;5135911;27;20588;-72
2022/05/16 04:06:52;;;;;;;19.52;9.52;;;;;;;-149.78;100.00;50287.59;5116171;27;20038;-72
2022/05/16 04:09:18;;;;;;;19.00;10.55;;;;;;;-149.78;100.00;50264.13;5111978;27;20624;-72
2022/05/16 04:11:44;;;;;;;18.67;10.02;;;;;;;-149.78;100.00;50244.59;5100306;27;20035;-72
2022/05/16 04:14:09;;;;;;;18.27;9.25;;;;;;;-149.78;100.00;50240.66;5135697;27;20057;-72
2022/05/16 04:16:37;;;;;;;20.90;9.88;;;;;;;-149.78;100.00;50244.59;5135784;27;20043;-72
2022/05/16 04:19:06;;;;;;;20.30;9.85;;;;;;;-149.78;100.00;50260.22;5099929;28;20036;-72
2022/05/16 04:21:32;;;;;;;23.48;9.75;;;;;;;-149.78;100.00;50260.22;5097250;28;20032;-72
2022/05/16 04:23:57;;;;;;;20.27;10.25;;;;;;;-149.78;100.00;50264.13;5115043;28;20040;-72
2022/05/16 04:26:23;;;;;;;18.10;9.60;;;;;;;-149.78;100.00;50228.94;5123938;27;20039;-72
2022/05/16 04:28:49;;;;;;;23.52;10.45;;;;;;;-149.78;100.00;50271.97;5117138;27;20039;-72
2022/05/16 04:31:15;;;;;;;25.70;10.82;;;;;;;-149.78;100.00;50248.50;5135600;27;20039;-72
2022/05/16 04:33:41;;;;;;;24.15;11.02;;;;;;;-149.78;100.00;50252.41;5135430;27;20122;-72
2022/05/16 04:36:06;;;;;;;24.20;10.93;;;;;;;-149.78;100.00;50279.78;5135511;27;20136;-72
2022/05/16 04:38:32;;;;;;;29.70;11.75;;;;;;;-149.78;100.00;50275.88;5135362;27;20063;-72
2022/05/16 04:43:42;;;;;;;26.40;12.18;;;;;;;-149.78;100.00;50283.69;5105134;27;20042;-72
2022/05/16 04:46:08;;;;;;;29.58;13.07;;;;;;;-149.78;100.00;50271.97;5135127;27;20039;-72
2022/05/16 04:48:34;;;;;;;36.00;13.68;;;;;;;-149.78;100.00;50260.22;5135106;27;20088;-72
2022/05/16 04:51:00;;;;;;;33.55;13.15;;;;;;;-149.78;100.00;50260.22;5134890;27;20075;-72
2022/05/16 04:53:26;;;;;;;27.27;13.15;;;;;;;-149.78;100.00;50275.88;5134650;27;20475;-72
2022/05/16 04:55:52;;;;;;;29.98;14.10;;;;;;;-149.78;100.00;50264.13;5134339;27;20035;-71
2022/05/16 04:58:18;;;;;;;31.20;13.45;;;;;;;-149.78;100.00;50260.22;5134947;27;20042;-72
2022/05/16 05:00:43;;;;;;;30.17;13.85;;;;;;;-149.78;100.00;50244.59;5116355;27;20042;-72
2022/05/16 05:03:09;;;;;;;39.45;15.43;;;;;;;-149.78;100.00;50256.31;5115424;27;20042;-72
2022/05/16 05:05:35;;;;;;;32.03;15.02;;;;;;;-149.78;100.00;50248.50;5099182;27;20054;-72
2022/05/16 05:08:01;;;;;;;42.75;15.50;;;;;;;-149.78;100.00;50266.09;5101326;27;20031;-72
2022/05/16 05:16:17;;;;;;;35.78;15.27;;;;;;;-149.78;100.00;50313.03;5134752;27;20031;-71
2022/05/16 05:18:44;;;;;;;36.83;15.77;;;;;;;-149.78;100.00;50262.19;5116084;27;20079;-72
2022/05/16 05:21:10;;;;;;;47.58;16.30;;;;;;;-149.78;100.00;50260.22;5104403;27;20538;-72
2022/05/16 05:23:39;;;;;;;43.83;16.67;;;;;;;-149.78;100.00;50256.31;5116284;27;20167;-71
2022/05/16 05:26:06;;;;;;;48.70;17.00;;;;;;;-149.78;100.00;50260.22;5134187;27;20035;-72
2022/05/16 05:28:33;;;;;;;45.50;16.55;;;;;;;-149.78;100.00;50244.59;5115785;27;20498;-72
2022/05/16 05:30:58;;;;;;;47.83;16.85;;;;;;;-149.78;100.00;50248.50;5115361;27;20130;-72
2022/05/16 05:33:25;;;;;;;51.78;17.00;;;;;;;-149.78;100.00;50256.31;5106393;27;20160;-71
2022/05/16 05:35:51;;;;;;;40.13;16.25;;;;;;;-149.78;100.00;50240.66;5100393;27;20042;-71
2022/05/16 05:38:18;;;;;;;45.00;16.52;;;;;;;-149.78;100.00;50271.97;5106280;27;20031;-72
2022/05/16 05:40:45;;;;;;;52.85;18.23;;;;;;;-149.78;100.00;50287.59;5124160;27;20019;-72
2022/05/16 05:43:11;;;;;;;48.22;16.92;;;;;;;-149.78;100.00;50268.03;5119805;27;20041;-72
2022/05/16 05:45:37;;;;;;;64.22;21.27;;;;;;;-149.78;100.00;50256.31;5124259;27;20027;-72
2022/05/16 05:48:04;;;;;;;54.38;17.80;;;;;;;-149.78;100.00;50268.03;5119749;27;20169;-72
2022/05/16 05:50:30;;;;;;;48.90;19.00;;;;;;;-149.78;100.00;50268.03;5101592;27;20043;-72
2022/05/16 05:52:56;;;;;;;53.55;18.75;;;;;;;-149.78;100.00;50252.41;5085289;27;20051;-72
2022/05/16 05:55:24;;;;;;;55.75;19.63;;;;;;;-149.78;100.00;50275.88;5085995;27;20047;-72
2022/05/16 05:57:50;;;;;;;64.22;20.40;;;;;;;-149.78;100.00;50279.78;5133948;27;20035;-72
2022/05/16 06:00:16;;;;;;;59.97;20.02;;;;;;;-149.78;100.00;50260.22;5115277;27;20054;-72
2022/05/16 06:02:43;;;;;;;61.95;20.73;;;;;;;-149.78;100.00;50254.34;5115331;27;20035;-72
2022/05/16 06:05:15;;;;;;;68.57;20.83;;;;;;;-149.78;100.00;50301.28;5094121;27;20050;-72
2022/05/16 06:07:41;;;;;;;66.47;20.92;;;;;;;-149.78;100.00;50248.50;5105447;27;20027;-71
2022/05/16 06:10:08;;;;;;;73.38;20.48;;;;;;;-149.78;100.00;50225.03;5105983;27;20034;-72
2022/05/16 06:12:34;;;;;;;57.97;20.83;;;;;;;-149.78;100.00;50275.88;5114792;27;20027;-72
2022/05/16 06:15:00;;;;;;;63.92;20.98;;;;;;;-149.78;100.00;50250.44;5111397;27;20031;-71
2022/05/16 06:17:25;;;;;;;63.00;21.35;;;;;;;-149.78;100.00;50238.72;5133118;27;20083;-72
2022/05/16 06:19:51;;;;;;;65.65;21.42;;;;;;;-149.78;100.00;50268.03;5115269;28;20059;-71
2022/05/16 06:22:17;;;;;;;68.88;22.77;;;;;;;-149.78;100.00;50277.81;5115423;27;20039;-70
2022/05/16 06:27:30;;;;;;;67.90;21.92;;;;;;;-149.78;100.00;50266.09;5129482;27;20101;-69
2022/05/16 06:29:56;;;;;;;69.28;21.60;;;;;;;-149.78;100.00;50250.44;5131547;27;20035;-67
2022/05/16 06:32:22;;;;;;;70.30;21.95;;;;;;;-149.78;100.00;50248.50;5099108;28;20038;-70
2022/05/16 06:34:48;;;;;;;77.78;21.67;;;;;;;-149.78;100.00;50240.66;5122267;27;21448;-70
2022/05/16 06:37:14;;;;;;;63.45;22.08;;;;;;;-149.78;100.00;50279.78;5125662;27;20027;-69
2022/05/16 06:39:40;;;;;;;67.88;23.15;;;;;;;-149.78;100.00;50256.31;5120174;27;20023;-74
2022/05/16 06:42:06;;;;;;;73.63;22.95;;;;;;;-149.78;100.00;50240.66;5100753;27;20053;-76
2022/05/16 06:44:32;;;;;;;64.55;22.70;;;;;;;-149.78;100.00;50252.41;5125420;27;20118;-73
2022/05/16 06:46:57;;;;;;;72.53;23.70;;;;;;;-149.78;100.00;50244.59;5123804;27;20118;-73
2022/05/16 06:49:23;;;;;;;66.82;21.60;;;;;;;-149.78;100.00;50256.31;5093777;28;20053;-74
2022/05/16 06:51:49;;;;;;;69.70;22.65;;;;;;;-149.78;100.00;50252.41;5100147;28;20059;-74
2022/05/16 06:54:14;;;;;;;76.53;24.20;;;;;;;-149.78;100.00;50260.22;5134146;28;20035;-72
2022/05/16 06:56:40;;;;;;;78.20;22.92;;;;;;;-149.78;100.00;50248.50;5132192;28;20470;-74
2022/05/16 06:59:05;;;;;;;67.40;22.20;;;;;;;-149.78;100.00;50264.13;5128972;27;20382;-73
2022/05/16 07:01:31;;;;;;;69.38;21.98;;;;;;;-149.78;100.00;50262.19;5093319;28;20024;-74
2022/05/16 07:03:57;;;;;;;72.45;22.00;;;;;;;-149.78;100.00;50295.44;5097718;28;20465;-74
2022/05/16 07:06:23;;;;;;;69.68;22.77;;;;;;;-149.78;100.00;50260.22;5092570;28;20114;-74
2022/05/16 07:08:48;;;;;;;70.93;24.50;;;;;;;-149.78;100.00;50271.97;5088094;28;20098;-73
2022/05/16 07:11:14;;;;;;;73.82;23.38;;;;;;;-149.78;100.00;50287.59;5081229;28;20062;-74
2022/05/16 07:13:39;;;;;;;75.63;22.80;;;;;;;-149.78;100.00;50275.88;5089975;28;20039;-73
2022/05/16 07:16:05;;;;;;;81.28;23.05;;;;;;;-149.78;100.00;50275.88;5097231;28;20089;-73
2022/05/16 07:18:31;;;;;;;70.93;23.60;;;;;;;-149.78;100.00;50275.88;5103025;28;20122;-73
2022/05/16 07:20:58;;;;;;;67.50;22.60;;;;;;;-149.78;100.00;50271.97;5094562;28;20429;-73
2022/05/16 07:23:24;;;;;;;63.78;23.10;;;;;;;-149.78;100.00;50250.44;5100675;28;20035;-74
2022/05/16 07:28:34;;;;;;;69.00;23.17;;;;;;;-149.78;100.00;50268.03;5097732;28;20410;-73
2022/05/16 07:31:00;;;;;;;82.20;23.80;;;;;;;-149.78;100.00;50256.31;5100887;28;20032;-74
2022/05/16 07:33:26;;;;;;;79.40;24.02;;;;;;;-149.78;100.00;50248.50;5101919;28;20036;-74
2022/05/16 07:35:54;;;;;;;77.03;23.67;;;;;;;-149.78;100.00;50240.66;5107451;28;20035;-73
2022/05/16 07:38:21;;;;;;;79.50;24.45;;;;;;;-149.78;100.00;50254.34;5109090;28;20187;-73
2022/05/16 07:40:47;;;;;;;75.38;23.90;;;;;;;-149.78;100.00;50264.13;5116330;28;20452;-74
2022/05/16 07:43:14;;;;;;;79.00;23.92;;;;;;;-149.78;100.00;50238.72;5116637;28;20387;-73
2022/05/16 07:45:39;;;;;;;79.15;24.40;;;;;;;-149.78;100.00;50268.03;5115324;28;20486;-73
2022/05/16 07:48:05;;;;;;;78.13;24.05;;;;;;;-149.78;100.00;50256.31;5116875;27;20043;-73
2022/05/16 07:50:33;;;;;;;78.35;24.38;;;;;;;-149.78;100.00;50264.13;5119205;27;20069;-73
2022/05/16 07:52:59;;;;;;;83.22;24.45;;;;;;;-149.78;100.00;50283.69;5156956;27;20043;-73
2022/05/16 07:55:26;;;;;;;83.28;23.02;;;;;;;-149.78;100.00;50271.97;5139225;27;20038;-73
2022/05/16 07:57:52;;;;;;;74.75;24.90;;;;;;;-149.78;100.00;50268.03;5157797;27;20023;-74
2022/05/16 08:00:20;;;;;;;70.85;23.48;;;;;;;-149.78;100.00;50252.41;5157900;27;20023;-73
2022/05/16 08:02:45;;;;;;;70.40;23.23;;;;;;;-149.78;100.00;50244.59;5137234;27;20027;-73
2022/05/16 08:05:15;;;;;;;68.70;23.27;;;;;;;-149.78;100.00;50260.22;5136744;27;20027;-73
2022/05/16 08:10:31;;;;;;;75.15;22.17;;;;;;;-149.78;100.00;50268.03;5121310;27;20054;-73
2022/05/16 08:13:14;;;;;;;69.85;23.45;;;;;;;-149.78;100.00;50273.91;5118322;27;20469;-73
2022/05/16 08:15:42;;;;;;;65.90;22.73;;;;;;;-149.78;100.00;50236.75;5136596;27;20065;-74
2022/05/16 08:18:10;;;;;;;85.72;25.83;;;;;;;-149.78;100.00;50248.50;5136933;27;20039;-74
2022/05/16 08:20:37;;;;;;;82.18;26.38;;;;;;;-149.78;100.00;50291.50;5084697;27;20031;-73
2022/05/16 08:23:04;;;;;;;65.00;24.48;;;;;;;-149.78;100.00;50266.09;5136808;27;20104;-74
2022/05/16 08:25:30;;;;;;;83.63;25.50;;;;;;;-149.78;100.00;50287.59;5100717;27;20099;-74
2022/05/16 08:27:56;;;;;;;66.15;23.23;;;;;;;-149.78;100.00;50252.41;5133593;27;20099;-74
2022/05/16 08:30:23;;;;;;;79.32;24.20;;;;;;;-149.78;100.00;50270.00;5138083;27;20035;-74
2022/05/16 08:32:50;;;;;;;71.47;24.73;;;;;;;-149.78;100.00;50299.34;5137928;27;20039;-74
2022/05/16 08:35:18;;;;;;;67.72;23.27;;;;;;;-149.78;100.00;50264.13;5138027;27;20035;-74
2022/05/16 08:40:45;;;;;;;72.22;23.70;;;;;;;-149.78;100.00;50270.00;5126928;27;20109;-73
2022/05/16 08:43:15;;;;;;;77.47;24.98;;;;;;;-149.78;100.00;50271.97;5156662;27;20078;-74
2022/05/16 08:45:51;;;;;;;68.07;23.63;;;;;;;-149.78;100.00;50264.13;5156642;27;20516;-74
2022/05/16 08:48:34;;;;;;;62.22;22.38;;;;;;;-149.78;100.00;50248.50;5138398;27;20110;-74
2022/05/16 08:51:14;;;;;;;67.63;24.73;;;;;;;-149.78;100.00;50258.28;5129678;27;20054;-73
2022/05/16 08:53:49;;;;;;;71.20;23.65;;;;;;;-149.78;100.00;50234.81;5117454;27;20057;-73
2022/05/16 08:56:19;;;;;;;73.85;23.85;;;;;;;-149.78;100.00;50295.44;5135834;27;20490;-74
2022/05/16 08:58:59;;;;;;;71.93;22.95;;;;;;;-149.78;100.00;50283.69;5135617;27;20037;-73
2022/05/16 09:01:31;;;;;;;65.72;23.70;;;;;;;-149.78;100.00;50266.09;5135701;27;20118;-73
2022/05/16 09:04:00;;;;;;;;;;;;;;;-149.78;100.00;50236.75;5148024;27;20023;-73
2022/05/16 09:06:44;;;;;;;53.97;21.40;;;;;;;-149.78;100.00;50209.38;5120269;27;19917;-73
2022/05/16 09:09:11;;;;;;;64.97;22.65;;;;;;;-149.78;100.00;50252.41;5155652;27;20371;-73
2022/05/16 09:11:51;;;;;;;54.47;21.92;;;;;;;-149.78;100.00;50228.94;5137322;27;20065;-73
2022/05/16 09:14:28;;;;;;;50.13;21.10;;;;;;;-149.78;100.00;50223.06;5096529;28;20084;-73
2022/05/16 09:17:00;;;;;;;50.53;20.73;;;;;;;-149.78;100.00;50244.59;5114658;28;20076;-73
2022/05/16 09:19:56;;;;;;;49.40;21.15;;;;;;;-149.78;100.00;50221.13;5114588;28;20106;-73
2022/05/16 09:22:38;;;;;;;49.85;21.60;;;;;;;-149.78;100.00;50273.91;5096149;28;20104;-73
2022/05/16 09:25:11;;;;;;;44.53;20.20;;;;;;;-149.78;100.00;50228.94;5114335;28;20055;-73
2022/05/16 09:30:27;;;;;;;55.13;20.77;;;;;;;-149.78;100.00;50205.47;5134749;27;19950;-73
2022/05/16 09:33:11;;;;;;;54.55;22.13;;;;;;;-149.78;100.00;50238.72;5115968;27;20061;-72
2022/05/16 09:35:37;;;;;;;58.03;21.77;;;;;;;-149.78;100.00;50248.50;5115891;27;20126;-73
2022/05/16 09:38:03;;;;;;;49.70;21.00;;;;;;;-149.78;100.00;50217.19;5134613;27;20545;-73
2022/05/16 09:40:45;;;;;;;46.83;21.02;;;;;;;-149.78;100.00;50240.66;5114997;27;20030;-73
2022/05/16 09:43:20;;;;;;;53.88;22.52;;;;;;;-149.78;100.00;50232.84;5134227;27;20024;-73
2022/05/16 09:46:01;;;;;;;49.58;21.10;;;;;;;-149.78;100.00;50252.41;5134566;27;20103;-73
2022/05/16 09:48:27;;;;;;;60.45;21.35;;;;;;;-149.78;100.00;50209.38;5134493;27;20031;-72
2022/05/16 09:51:03;;;;;;;49.50;21.45;;;;;;;-149.78;100.00;50221.13;5141750;27;20026;-73
2022/05/16 09:53:36;;;;;;;55.35;22.02;;;;;;;-149.78;100.00;50256.31;5136326;27;20031;-73
2022/05/16 09:56:26;;;;;;;58.97;23.75;;;;;;;-149.78;100.00;50283.69;5155195;27;20030;-75
2022/05/16 09:59:00;;;;;;;55.78;22.10;;;;;;;-149.78;100.00;50240.66;5142407;27;20050;-74
2022/05/16 10:01:32;;;;;;;66.40;24.42;;;;;;;-149.78;100.00;50248.50;5154998;27;20034;-74
2022/05/16 10:04:12;;;;;;;78.57;25.23;;;;;;;-149.78;100.00;50232.84;5142598;27;20062;-72
2022/05/16 10:06:42;;;;;;;64.97;24.30;;;;;;;-149.78;100.00;50225.03;5115900;27;20053;-73
2022/05/16 10:09:25;;;;;;;60.22;25.02;;;;;;;-149.78;100.00;50236.75;5116387;27;20050;-73
2022/05/16 10:11:51;;;;;;;60.25;24.67;;;;;;;-149.78;100.00;50232.84;5115683;27;20122;-72
2022/05/16 10:14:17;;;;;;;68.15;27.45;;;;;;;-149.78;100.00;50252.41;5115736;27;20038;-73
2022/05/16 10:16:48;;;;;;;59.38;22.75;;;;;;;-149.78;100.00;50240.66;5115450;27;20118;-73
2022/05/16 10:19:24;;;;;;;71.60;27.05;;;;;;;-149.78;100.00;50248.50;5115496;27;20026;-74
2022/05/16 10:21:50;;;;;;;70.72;24.80;;;;;;;-149.78;100.00;50236.75;5115333;27;20489;-73
2022/05/16 10:24:16;;;;;;;69.15;27.55;;;;;;;-149.78;100.00;50246.53;5115643;27;20039;-73
2022/05/16 10:26:46;;;;;;;74.53;29.13;;;;;;;-149.78;100.00;50266.09;5140214;27;20478;-73
2022/05/16 10:29:17;;;;;;;77.95;28.00;;;;;;;-149.78;100.00;50221.13;5154662;27;20034;-72
2022/05/16 10:35:02;;;;;;;61.05;26.85;;;;;;;-149.78;100.00;50254.34;5135894;27;20031;-74
2022/05/16 10:37:31;;;;;;;62.67;26.15;;;;;;;-149.78;100.00;50217.19;5143024;27;20062;-72
2022/05/16 10:40:07;;;;;;;63.75;26.30;;;;;;;-149.78;100.00;50223.06;5118403;27;20385;-75
2022/05/16 10:42:44;;;;;;;61.53;26.20;;;;;;;-149.78;100.00;50248.50;5136518;27;20027;-73
2022/05/16 10:45:18;;;;;;;55.78;25.10;;;;;;;-149.78;100.00;50221.13;5135228;27;20122;-73
2022/05/16 10:48:00;;;;;;;68.13;26.33;;;;;;;-149.78;100.00;50213.28;5153827;27;20062;-74
2022/05/16 10:50:34;;;;;;;;;;;;;;;-149.78;100.00;50242.63;5135509;27;20022;-74
2022/05/16 10:53:19;;;;;;;53.63;22.42;;;;;;;-149.78;100.00;50178.09;5139796;27;19916;-74
2022/05/16 10:56:10;;;;;;;51.40;22.48;;;;;;;-149.78;100.00;50162.44;5127812;27;20130;-73
2022/05/16 10:58:38;;;;;;;48.15;23.90;;;;;;;-149.78;100.00;50209.38;5104248;27;20039;-73
2022/05/16 11:01:07;;;;;;;52.65;23.02;;;;;;;-149.78;100.00;50209.38;5104419;27;20493;-75
2022/05/16 11:03:45;;;;;;;52.58;23.08;;;;;;;-149.78;100.00;50205.47;5128351;27;20046;-73
2022/05/16 11:06:16;;;;;;;55.40;23.00;;;;;;;-149.78;100.00;50205.47;5122519;27;20114;-73
2022/05/16 11:08:52;;;;;;;53.38;22.77;;;;;;;-149.78;100.00;50240.66;5137505;27;20502;-74
2022/05/16 11:11:33;;;;;;;44.92;21.10;;;;;;;-149.78;100.00;50246.53;5122753;27;20042;-73
2022/05/16 11:14:05;;;;;;;50.55;23.60;;;;;;;-149.78;100.00;50228.94;5118711;27;20102;-74
2022/05/16 11:16:38;;;;;;;56.78;24.33;;;;;;;-149.78;100.00;50236.75;5120094;27;20483;-74
2022/05/16 11:19:18;;;;;;;45.75;22.25;;;;;;;-149.78;100.00;50225.03;5120184;28;20038;-75
2022/05/16 11:21:53;;;;;;;48.20;22.55;;;;;;;-149.78;100.00;50189.81;5084883;28;20028;-75
2022/05/16 11:24:42;;;;;;;48.13;21.48;;;;;;;-149.78;100.00;50205.47;5101922;28;20146;-75
2022/05/16 11:27:42;;;;;;;47.90;22.33;;;;;;;-149.78;100.00;50197.66;5120013;28;20036;-75
2022/05/16 11:30:25;;;;;;;57.40;23.00;;;;;;;-149.78;100.00;50189.81;5108424;27;20031;-75
2022/05/16 11:33:10;;;;;;;53.05;22.65;;;;;;;-149.78;100.00;50232.84;5112645;27;20263;-75
2022/05/16 11:35:48;;;;;;;57.63;24.90;;;;;;;-149.78;100.00;50226.97;5104052;27;20027;-75
2022/05/16 11:38:26;;;;;;;50.20;23.10;;;;;;;-149.78;100.00;50260.22;5103535;27;20471;-74